createdAt,value
2018-02-07T00:01:11.359Z,63.40
2018-02-07T00:03:37.497Z,63.30
2018-02-07T00:06:05.196Z,63.50
2018-02-07T00:08:31.327Z,63.80
2018-02-07T00:10:57.521Z,65.10
2018-02-07T00:13:23.741Z,67.00
2018-02-07T00:15:50.218Z,66.80
2018-02-07T00:18:17.212Z,64.50
2018-02-07T00:20:43.531Z,64.50
2018-02-07T00:23:10.357Z,65.10
2018-02-07T00:25:36.430Z,64.70
2018-02-07T00:28:02.493Z,64.20
2018-02-07T00:30:29.774Z,63.60
2018-02-07T00:32:55.815Z,63.00
2018-02-07T00:35:21.941Z,63.10
2018-02-07T00:37:48.370Z,64.40
2018-02-07T00:40:14.792Z,66.10
2018-02-07T00:42:41.924Z,67.70
2018-02-07T00:45:08.254Z,67.60
2018-02-07T00:47:35.424Z,67.30
2018-02-07T00:50:01.484Z,67.20
2018-02-07T00:52:28.301Z,66.70
2018-02-07T00:54:54.348Z,66.00
2018-02-07T00:57:21.583Z,64.30
2018-02-07T00:59:48.176Z,64.40
2018-02-07T01:02:14.236Z,64.10
2018-02-07T01:04:40.665Z,63.60
2018-02-07T01:07:06.697Z,63.70
2018-02-07T01:09:32.741Z,63.60
2018-02-07T01:11:59.561Z,64.40
2018-02-07T01:14:25.606Z,64.30
2018-02-07T01:16:52.415Z,64.70
2018-02-07T01:19:18.466Z,64.70
2018-02-07T01:21:45.167Z,65.80
2018-02-07T01:24:11.218Z,66.20
2018-02-07T01:26:37.283Z,66.70
2018-02-07T01:29:03.358Z,65.90
2018-02-07T01:31:29.996Z,66.70
2018-02-07T01:33:56.053Z,66.70
2018-02-07T01:36:22.849Z,66.20
2018-02-07T01:38:48.938Z,66.20
2018-02-07T01:41:15.031Z,65.40
2018-02-07T01:43:41.729Z,66.20
2018-02-07T01:46:07.757Z,67.00
2018-02-07T01:48:33.814Z,68.10
2018-02-07T01:51:00.092Z,68.70
2018-02-07T01:53:26.949Z,66.90
2018-02-07T01:55:52.981Z,66.90
2018-02-07T01:58:19.036Z,66.30
2018-02-07T02:00:46.215Z,65.40
2018-02-07T02:03:12.271Z,65.40
2018-02-07T02:05:38.476Z,64.60
2018-02-07T02:08:05.743Z,65.00
2018-02-07T02:10:31.789Z,65.00
2018-02-07T02:12:58.183Z,64.00
2018-02-07T02:15:24.242Z,63.80
2018-02-07T02:17:50.862Z,64.40
2018-02-07T02:20:16.909Z,64.50
2018-02-07T02:22:44.000Z,64.90
2018-02-07T02:25:11.040Z,65.60
2018-02-07T02:27:38.408Z,65.30
2018-02-07T02:30:05.133Z,65.30
2018-02-07T02:32:32.501Z,66.10
2018-02-07T02:34:58.870Z,66.10
2018-02-07T02:37:26.504Z,66.10
2018-02-07T02:39:52.591Z,66.00
2018-02-07T02:42:19.373Z,65.40
2018-02-07T02:44:45.406Z,65.40
2018-02-07T02:47:11.546Z,66.40
2018-02-07T02:49:38.369Z,65.20
2018-02-07T02:52:04.435Z,64.80
2018-02-07T02:54:30.489Z,65.20
2018-02-07T02:56:57.832Z,64.80
2018-02-07T02:59:25.313Z,64.80
2018-02-07T03:01:52.042Z,64.80
2018-02-07T03:04:18.434Z,66.20
2018-02-07T03:06:46.334Z,66.00
2018-02-07T03:09:13.126Z,67.60
2018-02-07T03:11:39.225Z,67.60
2018-02-07T03:14:05.881Z,68.00
2018-02-07T03:16:32.038Z,68.80
2018-02-07T03:18:58.105Z,68.80
2018-02-07T03:21:24.169Z,68.00
2018-02-07T03:23:51.307Z,67.10
2018-02-07T03:26:17.389Z,67.10
2018-02-07T03:28:44.200Z,68.10
2018-02-07T03:31:10.251Z,68.10
2018-02-07T03:33:37.135Z,67.70
2018-02-07T03:36:03.940Z,67.70
2018-02-07T03:38:29.997Z,66.90
2018-02-07T03:40:56.069Z,66.40
2018-02-07T03:43:23.660Z,67.30
2018-02-07T03:45:49.710Z,67.30
2018-02-07T03:48:15.788Z,66.30
2018-02-07T03:50:43.520Z,67.00
2018-02-07T03:53:09.596Z,67.00
2018-02-07T03:55:35.696Z,67.10
2018-02-07T03:58:02.506Z,68.00
2018-02-07T04:00:29.928Z,67.10
2018-02-07T04:02:57.610Z,67.30
2018-02-07T04:05:24.785Z,66.30
2018-02-07T04:07:50.865Z,66.30
2018-02-07T04:10:16.925Z,66.10
2018-02-07T04:12:43.121Z,65.70
2018-02-07T04:15:09.714Z,66.40
2018-02-07T04:17:36.655Z,66.20
2018-02-07T04:20:03.558Z,65.60
2018-02-07T04:22:29.870Z,65.50
2018-02-07T04:24:55.975Z,66.10
2018-02-07T04:27:22.040Z,66.70
2018-02-07T04:29:48.112Z,66.40
2018-02-07T04:32:14.893Z,66.40
2018-02-07T04:34:41.221Z,66.40
2018-02-07T04:37:07.269Z,66.00
2018-02-07T04:39:33.910Z,66.90
2018-02-07T04:41:59.984Z,68.20
2018-02-07T04:44:26.160Z,67.60
2018-02-07T04:46:52.238Z,66.40
2018-02-07T04:49:18.295Z,65.90
2018-02-07T04:51:45.370Z,66.20
2018-02-07T04:54:11.434Z,65.50
2018-02-07T04:56:38.602Z,66.50
2018-02-07T04:59:05.070Z,66.50
2018-02-07T05:01:31.146Z,65.90
2018-02-07T05:03:57.198Z,65.40
2018-02-07T05:06:23.550Z,65.60
2018-02-07T05:08:49.605Z,67.00
2018-02-07T05:11:15.686Z,66.10
2018-02-07T05:13:41.802Z,67.00
2018-02-07T05:16:07.860Z,67.10
2018-02-07T05:18:34.663Z,67.90
2018-02-07T05:21:00.721Z,68.50
2018-02-07T05:23:28.129Z,69.10
2018-02-07T05:25:54.178Z,68.20
2018-02-07T05:28:20.266Z,68.00
2018-02-07T05:30:46.330Z,68.80
2018-02-07T05:33:12.401Z,68.90
2018-02-07T05:35:38.470Z,68.30
2018-02-07T05:38:05.121Z,69.00
2018-02-07T05:40:31.318Z,68.90
2018-02-07T05:42:57.400Z,67.70
2018-02-07T05:45:24.620Z,67.10
2018-02-07T05:47:51.778Z,67.20
2018-02-07T05:50:18.675Z,67.50
2018-02-07T05:52:44.730Z,67.50
2018-02-07T05:55:10.793Z,66.80
2018-02-07T05:57:37.605Z,66.90
2018-02-07T06:00:03.697Z,66.90
2018-02-07T06:02:30.261Z,66.40
2018-02-07T06:04:56.327Z,66.60
2018-02-07T06:07:22.630Z,66.10
2018-02-07T06:09:48.813Z,65.80
2018-02-07T06:12:14.969Z,66.30
2018-02-07T06:14:41.046Z,65.80
2018-02-07T06:17:07.128Z,65.40
2018-02-07T06:19:33.309Z,66.20
2018-02-07T06:21:59.372Z,67.00
2018-02-07T06:24:25.517Z,66.50
2018-02-07T06:26:52.372Z,66.90
2018-02-07T06:29:19.172Z,66.80
2018-02-07T06:31:45.559Z,66.80
2018-02-07T06:34:11.619Z,67.20
2018-02-07T06:36:37.711Z,66.40
2018-02-07T06:39:03.796Z,65.90
2018-02-07T06:41:29.840Z,66.20
2018-02-07T06:43:57.463Z,66.20
2018-02-07T06:46:24.373Z,65.60
2018-02-07T06:48:50.454Z,65.60
2018-02-07T06:51:17.313Z,65.50
2018-02-07T06:53:44.117Z,65.30
2018-02-07T06:56:10.251Z,65.30
2018-02-07T06:58:37.137Z,66.10
2018-02-07T07:01:03.212Z,66.10
2018-02-07T07:03:29.290Z,66.10
2018-02-07T07:05:55.352Z,66.70
2018-02-07T07:08:21.469Z,67.00
2018-02-07T07:10:47.561Z,66.60
2018-02-07T07:13:13.646Z,66.30
2018-02-07T07:15:40.533Z,66.30
2018-02-07T07:18:06.582Z,66.50
2018-02-07T07:20:33.383Z,67.00
2018-02-07T07:22:59.434Z,67.10
2018-02-07T07:25:25.517Z,67.20
2018-02-07T07:27:52.312Z,67.60
2018-02-07T07:30:18.383Z,67.60
2018-02-07T07:32:45.199Z,68.20
2018-02-07T07:35:11.601Z,68.20
2018-02-07T07:38:15.687Z,67.40
2018-02-07T07:40:41.847Z,67.40
2018-02-07T07:43:07.901Z,66.90
2018-02-07T07:45:33.977Z,66.60
2018-02-07T07:48:00.066Z,66.90
2018-02-07T07:50:26.861Z,66.50
2018-02-07T07:53:20.296Z,66.30
2018-02-07T07:55:46.340Z,66.80
2018-02-07T07:58:12.469Z,66.90
2018-02-07T08:00:38.497Z,67.10
2018-02-07T08:03:04.590Z,68.60
2018-02-07T08:05:30.989Z,70.30
2018-02-07T08:07:57.058Z,71.80
2018-02-07T08:10:23.134Z,72.80
2018-02-07T08:28:06.888Z,56.60
2018-02-07T08:41:52.603Z,37.70
2018-02-07T08:44:19.821Z,36.70
2018-02-07T08:46:46.873Z,37.50
2018-02-07T08:49:14.048Z,37.50
2018-02-07T08:51:40.234Z,39.80
2018-02-07T08:54:06.533Z,41.60
2018-02-07T08:56:32.771Z,43.20
2018-02-07T08:59:00.816Z,46.80
2018-02-07T09:01:27.062Z,46.80
2018-02-07T09:03:54.028Z,50.00
2018-02-07T09:06:20.397Z,50.00
2018-02-07T09:08:47.460Z,53.20
2018-02-07T09:11:13.724Z,53.10
2018-02-07T09:13:39.972Z,54.00
2018-02-07T09:16:06.861Z,55.40
2018-02-07T09:18:33.139Z,55.70
2018-02-07T09:20:59.992Z,57.90
2018-02-07T09:23:27.058Z,61.80
2018-02-07T09:25:54.167Z,61.60
2018-02-07T09:28:20.422Z,61.40
2018-02-07T09:30:47.469Z,63.10
2018-02-07T09:33:14.845Z,66.90
2018-02-07T09:35:42.081Z,67.80
2018-02-07T09:38:08.334Z,67.90
2018-02-07T09:40:35.388Z,67.60
2018-02-07T09:43:02.330Z,68.80
2018-02-07T09:45:28.563Z,68.60
2018-02-07T09:47:55.205Z,70.40
2018-02-07T09:50:22.273Z,70.70
2018-02-07T09:52:50.640Z,73.10
2018-02-07T09:55:16.915Z,73.00
2018-02-07T09:57:43.176Z,72.60
2018-02-07T10:00:09.859Z,72.80
2018-02-07T10:02:37.007Z,74.70
2018-02-07T10:05:05.127Z,73.00
2018-02-07T10:07:32.103Z,74.20
2018-02-07T10:09:58.607Z,74.20
2018-02-07T10:12:24.874Z,73.70
2018-02-07T10:14:52.029Z,72.40
2018-02-07T10:17:18.986Z,73.50
2018-02-07T10:19:45.882Z,73.40
2018-02-07T10:22:13.278Z,72.60
2018-02-07T10:24:40.233Z,74.90
2018-02-07T10:27:06.759Z,74.90
2018-02-07T10:29:33.710Z,73.00
2018-02-07T10:31:59.903Z,73.10
2018-02-07T10:34:27.720Z,72.10
2018-02-07T10:36:54.811Z,70.90
2018-02-07T10:39:21.267Z,70.90
2018-02-07T10:41:49.152Z,69.90
2018-02-07T10:44:15.564Z,69.90
2018-02-07T10:46:42.512Z,68.70
2018-02-07T10:49:09.616Z,68.20
2018-02-07T10:51:36.199Z,68.10
2018-02-07T10:54:03.432Z,68.00
2018-02-07T10:56:29.731Z,67.90
2018-02-07T10:58:56.591Z,67.30
2018-02-07T11:01:24.061Z,68.30
2018-02-07T11:03:51.043Z,68.40
2018-02-07T11:06:17.556Z,68.40
2018-02-07T11:08:45.415Z,66.40
2018-02-07T11:11:12.390Z,65.60
2018-02-07T11:13:39.562Z,65.50
2018-02-07T11:16:06.154Z,66.40
2018-02-07T11:18:32.391Z,66.30
2018-02-07T11:21:00.232Z,65.60
2018-02-07T11:23:28.240Z,64.10
2018-02-07T11:25:54.463Z,64.10
2018-02-07T11:28:20.694Z,63.50
2018-02-07T11:30:47.229Z,63.00
2018-02-07T11:33:14.298Z,62.40
2018-02-07T11:35:40.563Z,62.30
2018-02-07T11:38:07.338Z,63.50
2018-02-07T11:40:33.887Z,64.10
2018-02-07T11:43:01.031Z,66.40
2018-02-07T11:45:28.020Z,66.40
2018-02-07T11:47:54.814Z,66.90
2018-02-07T11:50:21.139Z,67.80
2018-02-07T11:52:54.171Z,69.50
2018-02-07T11:55:20.469Z,69.50
2018-02-07T11:57:46.685Z,70.20
2018-02-07T12:00:13.253Z,72.00
2018-02-07T12:02:40.403Z,73.20
2018-02-07T12:05:06.589Z,73.20
2018-02-07T12:07:32.822Z,72.70
2018-02-07T12:09:59.749Z,72.90
2018-02-07T12:12:27.046Z,72.40
2018-02-07T12:14:55.078Z,72.10
2018-02-07T12:17:22.755Z,71.90
2018-02-07T12:19:49.597Z,71.80
2018-02-07T12:22:16.731Z,72.80
2018-02-07T12:24:43.705Z,72.80
2018-02-07T12:27:10.488Z,72.80
2018-02-07T12:29:36.691Z,73.20
2018-02-07T12:32:03.867Z,73.70
2018-02-07T12:34:30.087Z,74.00
2018-02-07T12:36:57.000Z,73.50
2018-02-07T12:39:23.904Z,74.00
2018-02-07T12:41:51.095Z,76.40
2018-02-07T12:44:17.380Z,76.40
2018-02-07T12:46:44.428Z,77.00
2018-02-07T12:49:10.877Z,76.90
2018-02-07T12:51:37.313Z,77.00
2018-02-07T12:54:05.253Z,78.60
2018-02-07T12:56:31.436Z,78.60
2018-02-07T12:58:58.252Z,78.40
2018-02-07T13:01:24.504Z,79.30
2018-02-07T13:03:50.707Z,78.70
2018-02-07T13:06:17.744Z,80.80
2018-02-07T13:08:45.270Z,82.10
2018-02-07T13:11:13.663Z,81.00
2018-02-07T13:13:40.634Z,80.80
2018-02-07T13:16:06.871Z,80.00
2018-02-07T13:18:33.577Z,79.50
2018-02-07T13:21:00.523Z,83.20
2018-02-07T13:23:28.370Z,82.10
2018-02-07T13:25:55.587Z,83.00
2018-02-07T13:28:21.799Z,83.00
2018-02-07T13:30:48.001Z,82.70
2018-02-07T13:33:14.793Z,82.50
2018-02-07T13:35:41.771Z,82.60
2018-02-07T13:38:07.976Z,82.60
2018-02-07T13:40:34.192Z,85.40
2018-02-07T13:43:00.441Z,84.30
2018-02-07T13:45:26.631Z,82.70
2018-02-07T13:47:52.832Z,83.50
2018-02-07T13:50:19.326Z,82.40
2018-02-07T13:52:46.847Z,84.40
2018-02-07T13:55:13.370Z,84.50
2018-02-07T13:57:39.595Z,83.90
2018-02-07T14:00:05.928Z,84.00
2018-02-07T14:02:32.562Z,84.50
2018-02-07T14:04:59.250Z,85.60
2018-02-07T14:07:26.820Z,86.60
2018-02-07T14:09:53.794Z,86.20
2018-02-07T14:12:21.149Z,87.30
2018-02-07T14:14:49.520Z,86.00
2018-02-07T14:17:16.609Z,86.90
2018-02-07T14:19:43.496Z,86.90
2018-02-07T14:22:10.230Z,85.20
2018-02-07T14:24:37.079Z,84.70
2018-02-07T14:27:03.306Z,85.50
2018-02-07T14:29:30.409Z,86.20
2018-02-07T14:31:58.005Z,85.20
2018-02-07T14:34:24.969Z,83.30
2018-02-07T14:36:51.935Z,83.40
2018-02-07T14:39:18.201Z,83.40
2018-02-07T14:41:45.019Z,85.40
2018-02-07T14:44:11.478Z,85.80
2018-02-07T14:46:38.583Z,84.60
2018-02-07T14:49:05.528Z,83.80
2018-02-07T14:51:32.483Z,83.50
2018-02-07T14:53:59.413Z,83.40
2018-02-07T14:56:26.567Z,83.90
2018-02-07T14:58:53.641Z,83.00
2018-02-07T15:01:20.083Z,83.00
2018-02-07T15:03:47.710Z,82.60
2018-02-07T15:06:14.809Z,83.40
2018-02-07T15:08:41.149Z,83.30
2018-02-07T15:11:08.249Z,83.00
2018-02-07T15:13:35.448Z,82.90
2018-02-07T15:16:02.943Z,82.60
2018-02-07T15:18:29.887Z,82.00
2018-02-07T15:20:56.106Z,82.00
2018-02-07T15:23:23.095Z,81.70
2018-02-07T15:25:49.375Z,81.60
2018-02-07T15:28:16.326Z,81.50
2018-02-07T15:30:43.373Z,81.40
2018-02-07T15:33:10.333Z,81.20
2018-02-07T15:35:36.561Z,81.20
2018-02-07T15:38:03.075Z,81.50
2018-02-07T15:40:30.040Z,81.90
2018-02-07T15:42:56.267Z,81.90
2018-02-07T15:45:23.316Z,82.90
2018-02-07T15:47:49.617Z,82.90
2018-02-07T15:50:15.875Z,82.40
2018-02-07T15:52:42.114Z,82.40
2018-02-07T15:55:08.792Z,82.90
2018-02-07T15:57:35.134Z,82.50
2018-02-07T16:00:01.552Z,82.50
2018-02-07T16:02:29.266Z,82.30
2018-02-07T16:04:55.534Z,82.30
2018-02-07T16:07:22.510Z,82.90
2018-02-07T16:09:48.711Z,83.10
2018-02-07T16:12:15.279Z,83.50
2018-02-07T16:14:42.259Z,83.00
2018-02-07T16:17:09.129Z,83.00
2018-02-07T16:19:35.918Z,84.00
2018-02-07T16:22:02.884Z,84.00
2018-02-07T16:24:29.697Z,84.00
2018-02-07T16:26:56.992Z,84.70
2018-02-07T16:29:24.555Z,83.90
2018-02-07T16:31:52.511Z,83.80
2018-02-07T16:34:19.509Z,83.70
2018-02-07T16:36:46.062Z,83.40
2018-02-07T16:39:13.608Z,83.00
2018-02-07T16:41:40.584Z,83.20
2018-02-07T16:44:07.131Z,83.10
2018-02-07T16:46:34.162Z,83.10
2018-02-07T16:49:00.394Z,83.10
2018-02-07T16:51:28.047Z,83.70
2018-02-07T16:53:55.009Z,84.60
2018-02-07T16:56:21.496Z,84.60
2018-02-07T16:58:48.765Z,84.60
2018-02-07T17:01:15.829Z,84.80
2018-02-07T17:03:42.579Z,84.80
2018-02-07T17:06:09.840Z,84.00
2018-02-07T17:08:36.219Z,83.60
2018-02-07T17:11:02.759Z,83.10
2018-02-07T17:13:30.244Z,83.60
2018-02-07T17:15:56.494Z,83.60
2018-02-07T17:18:23.275Z,83.10
2018-02-07T17:20:51.492Z,82.90
2018-02-07T17:23:17.877Z,82.80
2018-02-07T17:25:45.245Z,83.50
2018-02-07T17:28:12.041Z,84.20
2018-02-07T17:30:38.730Z,85.10
2018-02-07T17:33:05.009Z,83.90
2018-02-07T17:35:32.237Z,83.90
2018-02-07T17:37:58.842Z,83.60
2018-02-07T17:40:25.879Z,83.00
2018-02-07T17:42:52.500Z,83.00
2018-02-07T17:45:19.639Z,82.80
2018-02-07T17:47:45.822Z,83.20
2018-02-07T17:50:12.046Z,83.00
2018-02-07T17:52:39.524Z,84.10
2018-02-07T17:55:05.900Z,84.10
2018-02-07T17:57:32.748Z,84.30
2018-02-07T17:59:59.237Z,84.70
2018-02-07T18:02:25.460Z,85.60
2018-02-07T18:04:51.752Z,85.70
2018-02-07T18:07:18.276Z,84.20
2018-02-07T18:09:45.382Z,83.90
2018-02-07T18:12:11.958Z,83.80
2018-02-07T18:14:39.457Z,83.60
2018-02-07T18:17:06.731Z,83.60
2018-02-07T18:19:32.938Z,83.30
2018-02-07T18:22:00.245Z,83.20
2018-02-07T18:24:26.418Z,83.40
2018-02-07T18:26:53.286Z,84.00
2018-02-07T18:29:19.994Z,84.00
2018-02-07T18:31:46.272Z,84.00
2018-02-07T18:34:14.440Z,84.00
2018-02-07T18:36:40.628Z,84.30
2018-02-07T18:39:07.105Z,84.20
2018-02-07T18:41:34.105Z,84.10
2018-02-07T18:44:00.688Z,84.00
2018-02-07T18:46:28.420Z,84.30
2018-02-07T18:48:55.525Z,84.00
2018-02-07T18:51:21.846Z,84.00
2018-02-07T18:53:48.408Z,84.60
2018-02-07T18:56:16.337Z,85.20
2018-02-07T18:58:42.510Z,85.20
2018-02-07T19:01:09.477Z,84.70
2018-02-07T19:03:36.680Z,84.70
2018-02-07T19:06:03.247Z,86.70
2018-02-07T19:08:30.334Z,87.40
2018-02-07T19:10:56.582Z,87.40
2018-02-07T19:13:22.813Z,87.00
2018-02-07T19:15:49.665Z,88.00
2018-02-07T19:18:16.738Z,87.90
2018-02-07T19:20:44.599Z,87.90
2018-02-07T19:23:10.809Z,87.90
2018-02-07T19:25:38.031Z,88.20
2018-02-07T19:28:05.152Z,88.40
2018-02-07T19:30:31.965Z,88.40
2018-02-07T19:32:59.392Z,87.10
2018-02-07T19:35:26.342Z,87.30
2018-02-07T19:37:52.550Z,87.30
2018-02-07T19:40:19.492Z,87.50
2018-02-07T19:42:47.277Z,86.80
2018-02-07T19:45:13.479Z,86.80
2018-02-07T19:47:40.361Z,86.90
2018-02-07T19:50:08.354Z,88.60
2018-02-07T19:52:35.415Z,88.50
2018-02-07T19:55:02.594Z,87.80
2018-02-07T19:57:30.420Z,87.80
2018-02-07T19:59:57.646Z,87.20
2018-02-07T20:02:24.795Z,86.70
2018-02-07T20:04:51.943Z,87.10
2018-02-07T20:07:18.906Z,86.80
2018-02-07T20:09:45.606Z,86.70
2018-02-07T20:12:11.874Z,87.10
2018-02-07T20:14:38.150Z,87.10
2018-02-07T20:17:05.241Z,87.30
2018-02-07T20:19:32.300Z,86.80
2018-02-07T20:21:58.610Z,86.80
2018-02-07T20:24:25.558Z,89.00
2018-02-07T20:26:52.534Z,88.60
2018-02-07T20:29:18.771Z,88.60
2018-02-07T20:31:44.986Z,88.10
2018-02-07T20:34:11.753Z,87.90
2018-02-07T20:36:38.258Z,87.70
2018-02-07T20:39:05.580Z,87.80
2018-02-07T20:41:33.136Z,87.70
2018-02-07T20:44:00.010Z,87.70
2018-02-07T20:46:26.819Z,87.10
2018-02-07T20:48:53.171Z,87.90
2018-02-07T20:51:19.497Z,87.60
2018-02-07T20:53:46.758Z,88.30
2018-02-07T20:56:13.831Z,88.50
2018-02-07T20:58:40.654Z,88.60
2018-02-07T21:01:07.120Z,88.00
2018-02-07T21:03:33.310Z,88.60
2018-02-07T21:05:59.544Z,88.50
2018-02-07T21:08:26.277Z,89.20
2018-02-07T21:10:53.088Z,88.50
2018-02-07T21:13:21.354Z,88.70
2018-02-07T21:15:47.687Z,89.10
2018-02-07T21:18:14.976Z,89.20
2018-02-07T21:20:41.903Z,88.90
2018-02-07T21:23:08.871Z,88.60
2018-02-07T21:25:35.479Z,88.70
2018-02-07T21:28:03.194Z,87.90
2018-02-07T21:30:29.431Z,87.90
2018-02-07T21:32:55.753Z,87.80
2018-02-07T21:35:22.759Z,87.80
2018-02-07T21:37:49.391Z,88.40
2018-02-07T21:40:17.566Z,88.20
2018-02-07T21:42:44.928Z,88.50
2018-02-07T21:45:11.678Z,88.50
2018-02-07T21:47:37.891Z,88.20
2018-02-07T21:50:04.967Z,87.80
2018-02-07T21:52:31.586Z,87.80
2018-02-07T21:54:58.643Z,88.20
2018-02-07T21:57:24.888Z,88.20
2018-02-07T21:59:52.029Z,87.50
2018-02-07T22:02:18.920Z,88.10
2018-02-07T22:04:46.264Z,88.40
2018-02-07T22:07:13.029Z,87.90
2018-02-07T22:09:40.003Z,88.60
2018-02-07T22:12:06.885Z,88.70
2018-02-07T22:14:33.447Z,89.70
2018-02-07T22:17:00.867Z,90.00
2018-02-07T22:19:27.194Z,90.00
2018-02-07T22:21:53.659Z,90.00
2018-02-07T22:24:20.317Z,89.20
2018-02-07T22:26:46.574Z,88.60
2018-02-07T22:29:12.918Z,88.20
2018-02-07T22:31:40.306Z,88.80
2018-02-07T22:34:06.661Z,87.90
2018-02-07T22:36:32.943Z,87.70
2018-02-07T22:38:59.725Z,87.60
2018-02-07T22:41:26.032Z,87.40
2018-02-07T22:43:52.341Z,87.80
2018-02-07T22:46:19.224Z,87.50
2018-02-07T22:48:46.281Z,87.30
2018-02-07T22:51:13.465Z,87.10
2018-02-07T22:53:40.326Z,87.10
2018-02-07T22:56:07.888Z,88.00
2018-02-07T22:58:34.905Z,87.60
2018-02-07T23:01:01.114Z,87.60
2018-02-07T23:03:28.543Z,87.80
2018-02-07T23:05:57.801Z,87.80
2018-02-07T23:08:24.218Z,88.00
2018-02-07T23:10:50.423Z,87.80
2018-02-07T23:13:17.218Z,87.70
2018-02-07T23:15:43.705Z,87.70
2018-02-07T23:18:11.039Z,87.60
2018-02-07T23:20:38.687Z,87.50
2018-02-07T23:23:04.949Z,87.50
2018-02-07T23:25:32.261Z,87.10
2018-02-07T23:27:59.067Z,87.00
2018-02-07T23:30:25.351Z,87.30
2018-02-07T23:32:53.002Z,87.40
2018-02-07T23:35:20.248Z,88.10
2018-02-07T23:37:46.866Z,87.50
2018-02-07T23:40:13.233Z,87.50
2018-02-07T23:42:40.233Z,87.20
2018-02-07T23:45:06.521Z,87.20
2018-02-07T23:47:32.749Z,87.50
2018-02-07T23:49:58.986Z,87.40
2018-02-07T23:52:25.712Z,87.80
2018-02-07T23:54:52.746Z,87.10
2018-02-07T23:57:20.365Z,87.70
2018-02-07T23:59:46.741Z,87.60
